sensor_id;sensor_type;location;lat;lon;timestamp;P1;durP1;ratioP1;P2;durP2;ratioP2
65096;SDS011;51686;46.758;4.356;2022-12-18T01:24:03;29.42;;;13.50;;
65096;SDS011;51686;46.758;4.356;2022-12-18T01:58:05;29.40;;;14.40;;
65096;SDS011;51686;46.758;4.356;2022-12-18T02:02:09;33.88;;;14.70;;
65096;SDS011;51686;46.758;4.356;2022-12-18T02:47:22;32.90;;;13.45;;
65096;SDS011;51686;46.758;4.356;2022-12-18T02:51:37;28.13;;;11.65;;
65096;SDS011;51686;46.758;4.356;2022-12-18T02:59:58;24.85;;;11.20;;
65096;SDS011;51686;46.758;4.356;2022-12-18T03:20:45;28.60;;;12.00;;
65096;SDS011;51686;46.758;4.356;2022-12-18T03:36:54;25.52;;;11.10;;
65096;SDS011;51686;46.758;4.356;2022-12-18T04:24:08;25.20;;;10.07;;
65096;SDS011;51686;46.758;4.356;2022-12-18T04:27:22;26.38;;;11.25;;
65096;SDS011;51686;46.758;4.356;2022-12-18T04:34:48;25.88;;;10.98;;
65096;SDS011;51686;46.758;4.356;2022-12-18T04:38:15;23.85;;;10.05;;
65096;SDS011;51686;46.758;4.356;2022-12-18T04:41:28;23.67;;;10.18;;
65096;SDS011;51686;46.758;4.356;2022-12-18T04:44:51;25.83;;;10.65;;
65096;SDS011;51686;46.758;4.356;2022-12-18T04:48:23;24.83;;;11.15;;
65096;SDS011;51686;46.758;4.356;2022-12-18T04:51:47;24.90;;;10.43;;
65096;SDS011;51686;46.758;4.356;2022-12-18T04:54:59;27.35;;;10.68;;
65096;SDS011;51686;46.758;4.356;2022-12-18T04:58:12;25.55;;;11.05;;
65096;SDS011;51686;46.758;4.356;2022-12-18T05:01:33;24.98;;;10.50;;
65096;SDS011;51686;46.758;4.356;2022-12-18T05:04:54;24.98;;;10.77;;
65096;SDS011;51686;46.758;4.356;2022-12-18T05:08:26;22.73;;;10.13;;
65096;SDS011;51686;46.758;4.356;2022-12-18T05:18:48;22.27;;;10.48;;
65096;SDS011;51686;46.758;4.356;2022-12-18T05:21:57;22.15;;;9.65;;
65096;SDS011;51686;46.758;4.356;2022-12-18T05:29:03;22.48;;;10.65;;
65096;SDS011;51686;46.758;4.356;2022-12-18T05:32:40;22.60;;;10.05;;
65096;SDS011;51686;46.758;4.356;2022-12-18T05:36:14;24.48;;;9.80;;
65096;SDS011;51686;46.758;4.356;2022-12-18T05:40:28;24.80;;;10.43;;
65096;SDS011;51686;46.758;4.356;2022-12-18T05:43:38;23.27;;;10.32;;
65096;SDS011;51686;46.758;4.356;2022-12-18T05:50:49;23.10;;;9.32;;
65096;SDS011;51686;46.758;4.356;2022-12-18T05:54:09;24.73;;;10.32;;
65096;SDS011;51686;46.758;4.356;2022-12-18T05:57:51;24.08;;;10.75;;
65096;SDS011;51686;46.758;4.356;2022-12-18T06:11:58;24.25;;;10.95;;
65096;SDS011;51686;46.758;4.356;2022-12-18T06:15:51;23.15;;;10.45;;
65096;SDS011;51686;46.758;4.356;2022-12-18T06:19:19;26.88;;;10.82;;
65096;SDS011;51686;46.758;4.356;2022-12-18T06:22:47;25.92;;;10.80;;
65096;SDS011;51686;46.758;4.356;2022-12-18T06:34:10;22.45;;;9.75;;
65096;SDS011;51686;46.758;4.356;2022-12-18T06:37:44;20.65;;;9.75;;
65096;SDS011;51686;46.758;4.356;2022-12-18T06:40:40;22.23;;;10.48;;
65096;SDS011;51686;46.758;4.356;2022-12-18T06:43:43;25.23;;;11.20;;
65096;SDS011;51686;46.758;4.356;2022-12-18T06:46:44;26.48;;;10.50;;
65096;SDS011;51686;46.758;4.356;2022-12-18T06:49:43;23.52;;;10.32;;
65096;SDS011;51686;46.758;4.356;2022-12-18T06:52:43;27.63;;;11.25;;
65096;SDS011;51686;46.758;4.356;2022-12-18T06:55:46;24.35;;;10.10;;
65096;SDS011;51686;46.758;4.356;2022-12-18T06:58:43;23.00;;;9.40;;
65096;SDS011;51686;46.758;4.356;2022-12-18T07:04:30;25.83;;;10.70;;
65096;SDS011;51686;46.758;4.356;2022-12-18T07:07:17;22.17;;;10.38;;
65096;SDS011;51686;46.758;4.356;2022-12-18T07:10:04;26.33;;;10.90;;
65096;SDS011;51686;46.758;4.356;2022-12-18T07:12:54;23.88;;;9.85;;
65096;SDS011;51686;46.758;4.356;2022-12-18T07:15:46;21.75;;;9.32;;
65096;SDS011;51686;46.758;4.356;2022-12-18T07:21:21;23.52;;;9.57;;
65096;SDS011;51686;46.758;4.356;2022-12-18T07:24:13;24.48;;;10.38;;
65096;SDS011;51686;46.758;4.356;2022-12-18T07:27:07;22.25;;;9.93;;
65096;SDS011;51686;46.758;4.356;2022-12-18T07:29:57;24.25;;;10.52;;
65096;SDS011;51686;46.758;4.356;2022-12-18T07:33:02;24.83;;;10.85;;
65096;SDS011;51686;46.758;4.356;2022-12-18T07:35:52;24.50;;;9.80;;
65096;SDS011;51686;46.758;4.356;2022-12-18T07:38:39;23.48;;;10.88;;
65096;SDS011;51686;46.758;4.356;2022-12-18T07:41:27;25.02;;;9.98;;
65096;SDS011;51686;46.758;4.356;2022-12-18T07:44:15;22.02;;;9.15;;
65096;SDS011;51686;46.758;4.356;2022-12-18T07:47:02;23.33;;;10.50;;
65096;SDS011;51686;46.758;4.356;2022-12-18T07:49:57;23.88;;;10.27;;
65096;SDS011;51686;46.758;4.356;2022-12-18T07:52:45;22.95;;;10.20;;
65096;SDS011;51686;46.758;4.356;2022-12-18T07:55:36;23.90;;;10.88;;
65096;SDS011;51686;46.758;4.356;2022-12-18T07:58:49;25.58;;;10.38;;
65096;SDS011;51686;46.758;4.356;2022-12-18T08:01:39;24.27;;;11.13;;
65096;SDS011;51686;46.758;4.356;2022-12-18T08:04:32;23.92;;;10.65;;
65096;SDS011;51686;46.758;4.356;2022-12-18T08:07:25;24.90;;;10.95;;
65096;SDS011;51686;46.758;4.356;2022-12-18T08:10:12;25.45;;;10.10;;
65096;SDS011;51686;46.758;4.356;2022-12-18T08:12:59;22.33;;;10.23;;
65096;SDS011;51686;46.758;4.356;2022-12-18T08:16:00;26.58;;;10.75;;
65096;SDS011;51686;46.758;4.356;2022-12-18T08:18:53;24.02;;;10.75;;
65096;SDS011;51686;46.758;4.356;2022-12-18T08:21:48;26.98;;;11.38;;
65096;SDS011;51686;46.758;4.356;2022-12-18T08:24:38;25.05;;;10.75;;
65096;SDS011;51686;46.758;4.356;2022-12-18T08:27:25;25.67;;;11.63;;
65096;SDS011;51686;46.758;4.356;2022-12-18T08:30:15;23.58;;;10.73;;
65096;SDS011;51686;46.758;4.356;2022-12-18T08:33:08;25.55;;;10.73;;
65096;SDS011;51686;46.758;4.356;2022-12-18T08:36:01;21.40;;;10.15;;
65096;SDS011;51686;46.758;4.356;2022-12-18T08:38:53;24.73;;;10.57;;
65096;SDS011;51686;46.758;4.356;2022-12-18T08:41:49;22.38;;;10.63;;
65096;SDS011;51686;46.758;4.356;2022-12-18T08:45:01;24.42;;;10.23;;
65096;SDS011;51686;46.758;4.356;2022-12-18T08:50:55;24.08;;;11.57;;
65096;SDS011;51686;46.758;4.356;2022-12-18T08:53:45;25.30;;;10.45;;
65096;SDS011;51686;46.758;4.356;2022-12-18T08:56:36;23.05;;;9.38;;
65096;SDS011;51686;46.758;4.356;2022-12-18T08:59:30;24.13;;;10.48;;
65096;SDS011;51686;46.758;4.356;2022-12-18T09:02:17;23.80;;;10.73;;
65096;SDS011;51686;46.758;4.356;2022-12-18T09:05:07;24.70;;;11.50;;
65096;SDS011;51686;46.758;4.356;2022-12-18T09:07:57;23.30;;;10.85;;
65096;SDS011;51686;46.758;4.356;2022-12-18T09:10:56;24.30;;;10.77;;
65096;SDS011;51686;46.758;4.356;2022-12-18T09:14:04;24.83;;;11.10;;
65096;SDS011;51686;46.758;4.356;2022-12-18T09:17:10;25.90;;;11.32;;
65096;SDS011;51686;46.758;4.356;2022-12-18T09:23:28;19.85;;;9.88;;
65096;SDS011;51686;46.758;4.356;2022-12-18T10:06:32;20.88;;;9.30;;
65096;SDS011;51686;46.758;4.356;2022-12-18T10:10:26;24.10;;;9.70;;
65096;SDS011;51686;46.758;4.356;2022-12-18T11:31:34;20.75;;;8.73;;
65096;SDS011;51686;46.758;4.356;2022-12-18T11:35:39;21.67;;;9.65;;
65096;SDS011;51686;46.758;4.356;2022-12-18T12:22:42;20.67;;;9.45;;
65096;SDS011;51686;46.758;4.356;2022-12-18T14:05:20;17.70;;;9.30;;
65096;SDS011;51686;46.758;4.356;2022-12-18T14:24:38;16.10;;;8.38;;
65096;SDS011;51686;46.758;4.356;2022-12-18T14:27:31;18.83;;;9.23;;
65096;SDS011;51686;46.758;4.356;2022-12-18T14:34:36;19.85;;;9.43;;
65096;SDS011;51686;46.758;4.356;2022-12-18T14:48:49;20.88;;;9.68;;
65096;SDS011;51686;46.758;4.356;2022-12-18T14:53:03;20.35;;;9.23;;
65096;SDS011;51686;46.758;4.356;2022-12-18T15:04:00;19.52;;;8.02;;
65096;SDS011;51686;46.758;4.356;2022-12-18T15:07:45;17.67;;;8.05;;
65096;SDS011;51686;46.758;4.356;2022-12-18T15:15:02;19.70;;;9.02;;
65096;SDS011;51686;46.758;4.356;2022-12-18T15:18:58;19.02;;;8.98;;
65096;SDS011;51686;46.758;4.356;2022-12-18T15:38:02;19.20;;;9.20;;
65096;SDS011;51686;46.758;4.356;2022-12-18T15:40:50;20.48;;;9.95;;
65096;SDS011;51686;46.758;4.356;2022-12-18T15:46:58;19.27;;;9.30;;
65096;SDS011;51686;46.758;4.356;2022-12-18T15:50:45;20.05;;;9.13;;
65096;SDS011;51686;46.758;4.356;2022-12-18T15:54:43;21.10;;;9.75;;
65096;SDS011;51686;46.758;4.356;2022-12-18T15:58:30;22.40;;;10.98;;
65096;SDS011;51686;46.758;4.356;2022-12-18T16:02:15;17.83;;;9.25;;
65096;SDS011;51686;46.758;4.356;2022-12-18T16:05:51;19.70;;;8.55;;
65096;SDS011;51686;46.758;4.356;2022-12-18T16:46:17;20.52;;;9.20;;
65096;SDS011;51686;46.758;4.356;2022-12-18T16:50:11;19.50;;;9.38;;
65096;SDS011;51686;46.758;4.356;2022-12-18T16:58:35;19.25;;;8.88;;
65096;SDS011;51686;46.758;4.356;2022-12-18T17:02:38;17.15;;;8.50;;
65096;SDS011;51686;46.758;4.356;2022-12-18T17:05:32;18.92;;;8.35;;
65096;SDS011;51686;46.758;4.356;2022-12-18T17:12:44;19.85;;;10.13;;
65096;SDS011;51686;46.758;4.356;2022-12-18T17:24:33;18.13;;;8.95;;
65096;SDS011;51686;46.758;4.356;2022-12-18T17:28:22;18.27;;;9.52;;
65096;SDS011;51686;46.758;4.356;2022-12-18T17:32:17;20.77;;;9.40;;
65096;SDS011;51686;46.758;4.356;2022-12-18T17:40:05;22.20;;;9.60;;
65096;SDS011;51686;46.758;4.356;2022-12-18T17:43:23;19.65;;;9.50;;
65096;SDS011;51686;46.758;4.356;2022-12-18T17:47:10;20.90;;;9.88;;
65096;SDS011;51686;46.758;4.356;2022-12-18T17:59:33;20.40;;;10.20;;
65096;SDS011;51686;46.758;4.356;2022-12-18T19:08:19;24.30;;;11.15;;
65096;SDS011;51686;46.758;4.356;2022-12-18T19:20:58;22.67;;;10.90;;
65096;SDS011;51686;46.758;4.356;2022-12-18T19:25:25;23.42;;;12.07;;
65096;SDS011;51686;46.758;4.356;2022-12-18T19:28:50;24.98;;;11.88;;
65096;SDS011;51686;46.758;4.356;2022-12-18T19:54:53;24.27;;;12.20;;
65096;SDS011;51686;46.758;4.356;2022-12-18T22:18:07;31.25;;;14.25;;
65096;SDS011;51686;46.758;4.356;2022-12-18T22:25:47;26.63;;;12.20;;
65096;SDS011;51686;46.758;4.356;2022-12-18T22:28:36;27.15;;;13.15;;
65096;SDS011;51686;46.758;4.356;2022-12-18T22:31:41;29.95;;;13.50;;
65096;SDS011;51686;46.758;4.356;2022-12-18T22:34:30;28.05;;;12.35;;
65096;SDS011;51686;46.758;4.356;2022-12-18T22:37:22;26.35;;;12.18;;
65096;SDS011;51686;46.758;4.356;2022-12-18T22:40:19;31.95;;;13.90;;
65096;SDS011;51686;46.758;4.356;2022-12-18T22:43:23;28.65;;;12.93;;
65096;SDS011;51686;46.758;4.356;2022-12-18T22:46:20;25.38;;;12.02;;
65096;SDS011;51686;46.758;4.356;2022-12-18T22:49:08;31.05;;;13.77;;
65096;SDS011;51686;46.758;4.356;2022-12-18T22:52:04;30.48;;;14.25;;
65096;SDS011;51686;46.758;4.356;2022-12-18T22:54:54;32.33;;;14.70;;
65096;SDS011;51686;46.758;4.356;2022-12-18T22:57:42;27.35;;;13.05;;
65096;SDS011;51686;46.758;4.356;2022-12-18T23:00:34;32.65;;;14.02;;
65096;SDS011;51686;46.758;4.356;2022-12-18T23:03:32;29.98;;;13.77;;
65096;SDS011;51686;46.758;4.356;2022-12-18T23:06:20;29.70;;;14.13;;
65096;SDS011;51686;46.758;4.356;2022-12-18T23:09:18;26.13;;;13.35;;
65096;SDS011;51686;46.758;4.356;2022-12-18T23:12:12;28.40;;;13.60;;
65096;SDS011;51686;46.758;4.356;2022-12-18T23:15:06;29.10;;;12.73;;
65096;SDS011;51686;46.758;4.356;2022-12-18T23:17:54;30.25;;;13.77;;
65096;SDS011;51686;46.758;4.356;2022-12-18T23:20:42;31.08;;;13.50;;
65096;SDS011;51686;46.758;4.356;2022-12-18T23:23:33;29.08;;;13.38;;
65096;SDS011;51686;46.758;4.356;2022-12-18T23:26:22;29.65;;;14.25;;
65096;SDS011;51686;46.758;4.356;2022-12-18T23:29:12;28.02;;;13.20;;
65096;SDS011;51686;46.758;4.356;2022-12-18T23:32:06;31.40;;;14.73;;
65096;SDS011;51686;46.758;4.356;2022-12-18T23:34:56;27.42;;;13.15;;
65096;SDS011;51686;46.758;4.356;2022-12-18T23:37:52;29.15;;;12.57;;
65096;SDS011;51686;46.758;4.356;2022-12-18T23:40:45;25.98;;;11.98;;
65096;SDS011;51686;46.758;4.356;2022-12-18T23:43:33;26.90;;;12.43;;
65096;SDS011;51686;46.758;4.356;2022-12-18T23:46:24;29.27;;;13.40;;
65096;SDS011;51686;46.758;4.356;2022-12-18T23:49:14;27.00;;;13.38;;
65096;SDS011;51686;46.758;4.356;2022-12-18T23:52:06;28.70;;;13.98;;
65096;SDS011;51686;46.758;4.356;2022-12-18T23:55:02;27.77;;;13.00;;
65096;SDS011;51686;46.758;4.356;2022-12-18T23:57:51;27.77;;;13.55;;
